createdAt,value
2023-01-04T00:01:39.893Z,15.52
2023-01-04T00:04:09.652Z,15.30
2023-01-04T00:06:36.828Z,13.73
2023-01-04T00:09:05.319Z,17.35
2023-01-04T00:11:33.731Z,14.43
2023-01-04T00:14:02.101Z,11.65
2023-01-04T00:16:30.788Z,12.68
2023-01-04T00:18:59.040Z,17.85
2023-01-04T00:21:31.305Z,12.45
2023-01-04T00:24:01.993Z,17.50
2023-01-04T00:26:35.185Z,15.30
2023-01-04T00:29:09.962Z,18.02
2023-01-04T00:31:41.057Z,13.90
2023-01-04T00:34:16.827Z,13.13
2023-01-04T00:36:48.026Z,15.02
2023-01-04T00:39:18.484Z,17.25
2023-01-04T00:41:59.310Z,13.98
2023-01-04T00:44:32.516Z,14.30
2023-01-04T00:47:04.386Z,13.80
2023-01-04T00:49:34.557Z,14.15
2023-01-04T00:52:04.802Z,14.50
2023-01-04T00:54:34.831Z,13.20
2023-01-04T00:57:05.514Z,18.20
2023-01-04T00:59:33.329Z,10.05
2023-01-04T01:02:01.793Z,16.27
2023-01-04T01:04:30.279Z,13.55
2023-01-04T01:06:58.592Z,15.25
2023-01-04T01:09:27.207Z,11.75
2023-01-04T01:11:55.605Z,13.27
2023-01-04T01:14:26.352Z,15.95
2023-01-04T01:16:57.670Z,13.68
2023-01-04T01:19:30.293Z,20.15
2023-01-04T01:22:00.554Z,13.48
2023-01-04T01:24:30.585Z,13.73
2023-01-04T01:27:00.609Z,15.35
2023-01-04T01:29:30.821Z,11.48
2023-01-04T01:32:00.912Z,13.93
2023-01-04T01:34:31.153Z,11.50
2023-01-04T01:37:02.792Z,15.00
2023-01-04T01:39:32.789Z,10.05
2023-01-04T01:42:02.874Z,12.30
2023-01-04T01:44:42.026Z,12.43
2023-01-04T01:47:28.233Z,14.15
2023-01-04T01:49:58.401Z,12.15
2023-01-04T01:52:38.996Z,14.27
2023-01-04T01:55:13.175Z,14.07
2023-01-04T01:57:50.641Z,20.92
2023-01-04T02:00:21.062Z,14.35
2023-01-04T02:03:27.195Z,12.65
2023-01-04T02:06:04.104Z,12.90
2023-01-04T02:08:33.092Z,13.82
2023-01-04T02:11:01.173Z,13.93
2023-01-04T02:13:54.967Z,11.60
2023-01-04T02:16:59.833Z,13.23
2023-01-04T02:20:10.458Z,15.23
2023-01-04T02:23:00.779Z,15.23
2023-01-04T02:26:17.660Z,18.23
2023-01-04T02:29:05.281Z,13.45
2023-01-04T02:32:05.873Z,11.60
2023-01-04T02:35:21.883Z,14.50
2023-01-04T02:39:00.343Z,15.10
2023-01-04T02:41:39.456Z,16.98
2023-01-04T02:44:54.644Z,14.13
2023-01-04T02:48:01.684Z,19.30
2023-01-04T02:51:00.056Z,15.85
2023-01-04T02:53:40.198Z,12.73
2023-01-04T02:56:38.570Z,12.82
2023-01-04T02:59:40.996Z,14.85
2023-01-04T03:03:05.186Z,11.38
2023-01-04T03:06:16.035Z,10.93
2023-01-04T03:09:19.323Z,14.48
2023-01-04T03:12:23.141Z,12.90
2023-01-04T03:15:28.512Z,13.27
2023-01-04T03:18:16.548Z,12.50
2023-01-04T03:20:52.500Z,13.80
2023-01-04T03:23:50.706Z,12.35
2023-01-04T03:26:52.358Z,11.70
2023-01-04T03:29:55.451Z,13.20
2023-01-04T03:33:18.213Z,11.10
2023-01-04T03:36:20.156Z,10.75
2023-01-04T03:39:50.839Z,11.73
2023-01-04T03:43:22.484Z,12.32
2023-01-04T03:46:28.178Z,12.15
2023-01-04T03:49:29.981Z,14.80
2023-01-04T03:52:07.828Z,13.57
2023-01-04T03:54:46.950Z,14.30
2023-01-04T03:57:18.892Z,15.48
2023-01-04T04:00:11.869Z,14.10
2023-01-04T04:02:46.417Z,13.48
2023-01-04T04:05:43.079Z,15.20
2023-01-04T04:08:31.494Z,14.18
2023-01-04T04:11:22.599Z,11.83
2023-01-04T04:13:51.473Z,10.60
2023-01-04T04:16:19.198Z,10.40
2023-01-04T04:18:48.613Z,11.95
2023-01-04T04:21:15.977Z,11.00
2023-01-04T04:23:44.683Z,16.40
2023-01-04T04:26:12.928Z,12.80
2023-01-04T04:28:42.678Z,12.57
2023-01-04T04:31:13.896Z,12.10
2023-01-04T04:33:41.100Z,14.48
2023-01-04T04:36:10.513Z,11.25
2023-01-04T04:38:38.219Z,11.82
2023-01-04T04:41:32.234Z,13.95
2023-01-04T04:44:02.498Z,14.27
2023-01-04T04:46:32.591Z,13.32
2023-01-04T04:49:04.107Z,12.07
2023-01-04T04:51:35.128Z,16.30
2023-01-04T04:54:07.958Z,12.07
2023-01-04T04:56:37.946Z,13.60
2023-01-04T04:59:06.239Z,12.93
2023-01-04T05:01:34.930Z,11.77
2023-01-04T05:04:05.399Z,14.60
2023-01-04T05:06:33.644Z,13.20
2023-01-04T05:09:01.706Z,11.43
2023-01-04T05:11:48.675Z,10.32
2023-01-04T05:14:18.705Z,11.60
2023-01-04T05:16:48.759Z,11.38
2023-01-04T05:19:19.062Z,13.23
2023-01-04T05:21:49.061Z,13.63
2023-01-04T05:24:19.099Z,14.18
2023-01-04T05:26:49.164Z,10.10
2023-01-04T05:29:37.893Z,10.07
2023-01-04T05:32:08.016Z,11.18
2023-01-04T05:34:38.123Z,14.90
2023-01-04T05:37:08.172Z,13.13
2023-01-04T05:39:38.213Z,10.43
2023-01-04T05:42:26.762Z,10.32
2023-01-04T05:44:59.819Z,9.73
2023-01-04T05:47:30.204Z,10.10
2023-01-04T05:50:00.847Z,9.02
2023-01-04T05:52:31.385Z,10.82
2023-01-04T05:55:01.805Z,12.60
2023-01-04T05:57:31.913Z,10.50
2023-01-04T06:00:02.794Z,11.05
2023-01-04T06:02:33.496Z,12.63
2023-01-04T06:05:05.281Z,8.20
2023-01-04T06:07:35.297Z,9.93
2023-01-04T06:10:04.190Z,10.07
2023-01-04T06:12:32.222Z,7.60
2023-01-04T06:15:00.728Z,8.27
2023-01-04T06:17:29.384Z,7.95
2023-01-04T06:19:58.001Z,10.32
2023-01-04T06:22:29.202Z,6.95
2023-01-04T06:24:58.209Z,7.00
2023-01-04T06:27:26.861Z,12.95
2023-01-04T06:29:55.172Z,8.68
2023-01-04T06:32:23.554Z,10.07
2023-01-04T06:34:52.015Z,10.65
2023-01-04T06:37:20.395Z,9.63
2023-01-04T06:39:48.875Z,7.70
2023-01-04T06:42:36.066Z,7.65
2023-01-04T06:45:07.024Z,7.20
2023-01-04T06:47:37.126Z,11.18
2023-01-04T06:50:08.026Z,6.03
2023-01-04T06:52:38.097Z,6.57
2023-01-04T06:55:11.630Z,7.63
2023-01-04T06:57:41.683Z,5.85
2023-01-04T07:00:11.435Z,4.15
2023-01-04T07:02:39.135Z,11.38
2023-01-04T07:05:27.222Z,6.82
2023-01-04T07:07:55.460Z,7.85
2023-01-04T07:10:23.813Z,8.38
2023-01-04T07:12:52.356Z,5.57
2023-01-04T07:15:37.344Z,5.57
2023-01-04T07:18:11.518Z,8.57
2023-01-04T07:20:41.541Z,4.85
2023-01-04T07:23:11.666Z,5.60
2023-01-04T07:25:41.703Z,5.72
2023-01-04T07:28:11.815Z,9.20
2023-01-04T07:30:41.881Z,6.25
2023-01-04T07:33:11.917Z,6.50
2023-01-04T07:35:41.889Z,9.48
2023-01-04T07:38:11.918Z,7.43
2023-01-04T07:40:56.468Z,9.38
2023-01-04T07:43:28.535Z,5.55
2023-01-04T07:45:59.038Z,5.95
2023-01-04T07:48:29.721Z,7.20
2023-01-04T07:50:59.861Z,5.90
2023-01-04T07:53:29.881Z,5.30
2023-01-04T07:56:01.131Z,5.78
2023-01-04T07:58:35.575Z,7.20
2023-01-04T08:01:19.636Z,8.52
2023-01-04T08:03:48.214Z,8.68
2023-01-04T08:06:19.027Z,5.07
2023-01-04T08:08:48.363Z,8.15
2023-01-04T08:11:22.565Z,6.47
2023-01-04T08:13:50.043Z,9.57
2023-01-04T08:16:23.555Z,5.95
2023-01-04T08:19:02.579Z,7.53
2023-01-04T08:21:36.509Z,6.93
2023-01-04T08:24:08.027Z,8.27
2023-01-04T08:26:38.223Z,9.43
2023-01-04T08:29:08.506Z,7.38
2023-01-04T08:31:36.808Z,4.50
2023-01-04T08:34:09.776Z,4.50
2023-01-04T08:36:53.460Z,8.80
2023-01-04T08:39:21.895Z,7.85
2023-01-04T08:44:41.085Z,5.18
2023-01-04T08:47:11.055Z,7.22
2023-01-04T08:49:40.967Z,7.53
2023-01-04T08:52:11.849Z,6.88
2023-01-04T08:54:42.435Z,12.00
2023-01-04T08:57:11.651Z,8.13
2023-01-04T08:59:41.596Z,9.00
2023-01-04T09:02:26.595Z,8.20
2023-01-04T09:05:00.165Z,8.65
2023-01-04T09:07:32.632Z,9.27
2023-01-04T09:10:02.279Z,8.32
2023-01-04T09:12:31.935Z,11.50
2023-01-04T09:15:03.012Z,8.95
2023-01-04T09:17:31.720Z,10.02
2023-01-04T09:20:01.538Z,13.20
2023-01-04T09:22:32.146Z,12.68
2023-01-04T09:25:02.913Z,12.75
2023-01-04T09:27:34.011Z,12.20
2023-01-04T09:30:04.553Z,11.65
2023-01-04T09:32:32.694Z,10.32
2023-01-04T09:35:02.598Z,9.80
2023-01-04T09:37:32.359Z,14.68
2023-01-04T09:40:02.283Z,11.10
2023-01-04T09:42:44.900Z,9.13
2023-01-04T09:45:26.729Z,10.73
2023-01-04T09:48:21.454Z,9.85
2023-01-04T09:51:06.313Z,8.38
2023-01-04T09:54:16.815Z,12.55
2023-01-04T09:56:59.364Z,10.25
2023-01-04T09:59:34.728Z,11.02
2023-01-04T10:02:23.757Z,10.65
2023-01-04T10:04:54.299Z,11.52
2023-01-04T10:07:34.893Z,10.45
2023-01-04T10:10:13.211Z,11.25
2023-01-04T10:13:13.490Z,13.20
2023-01-04T10:16:36.574Z,9.05
2023-01-04T10:23:11.179Z,10.37
2023-01-04T10:26:11.778Z,9.43
2023-01-04T10:29:09.297Z,7.90
2023-01-04T10:31:56.120Z,12.15
2023-01-04T10:34:40.386Z,6.50
2023-01-04T10:37:34.969Z,9.88
2023-01-04T10:40:17.479Z,7.43
2023-01-04T10:43:07.256Z,7.78
2023-01-04T10:46:15.406Z,10.38
2023-01-04T10:49:41.855Z,8.45
2023-01-04T10:52:38.280Z,7.38
2023-01-04T10:55:27.664Z,7.32
2023-01-04T10:58:17.655Z,11.48
2023-01-04T11:01:10.514Z,8.10
2023-01-04T11:09:05.247Z,12.15
2023-01-04T11:11:46.193Z,9.48
2023-01-04T11:14:16.188Z,5.60
2023-01-04T11:16:51.779Z,6.00
2023-01-04T11:19:22.490Z,7.40
2023-01-04T11:22:09.360Z,6.88
2023-01-04T11:25:07.818Z,7.07
2023-01-04T11:28:00.128Z,6.00
2023-01-04T11:30:52.205Z,10.50
2023-01-04T11:33:25.566Z,5.57
2023-01-04T11:35:59.393Z,6.32
2023-01-04T11:38:31.178Z,7.93
2023-01-04T11:41:18.120Z,4.35
2023-01-04T11:44:01.312Z,5.82
2023-01-04T11:46:34.831Z,6.20
2023-01-04T11:49:05.858Z,5.57
2023-01-04T11:51:40.907Z,6.30
2023-01-04T11:54:20.996Z,6.20
2023-01-04T11:57:18.906Z,3.15
2023-01-04T12:00:16.209Z,3.20
2023-01-04T12:03:02.543Z,3.97
2023-01-04T12:05:32.876Z,4.30
2023-01-04T12:08:00.263Z,3.42
2023-01-04T12:10:29.456Z,5.38
2023-01-04T12:13:02.422Z,3.63
2023-01-04T12:16:10.815Z,4.93
2023-01-04T12:18:45.104Z,3.00
2023-01-04T12:21:25.667Z,3.75
2023-01-04T12:23:56.605Z,4.82
2023-01-04T12:26:27.393Z,3.95
2023-01-04T12:29:24.944Z,3.30
2023-01-04T12:32:17.609Z,4.88
2023-01-04T12:34:48.724Z,4.22
2023-01-04T12:37:46.216Z,3.63
2023-01-04T12:40:45.118Z,3.78
2023-01-04T12:43:16.325Z,6.40
2023-01-04T12:46:08.388Z,5.25
2023-01-04T12:48:57.272Z,5.15
2023-01-04T12:51:33.017Z,3.38
2023-01-04T12:54:06.174Z,3.40
2023-01-04T12:57:17.747Z,4.38
2023-01-04T13:00:13.931Z,4.32
2023-01-04T13:03:15.015Z,6.65
2023-01-04T13:06:06.098Z,3.72
2023-01-04T13:08:45.613Z,7.18
2023-01-04T13:12:14.911Z,3.92
2023-01-04T13:14:57.883Z,3.65
2023-01-04T13:17:28.996Z,6.82
2023-01-04T13:19:59.390Z,3.97
2023-01-04T13:22:34.019Z,3.83
2023-01-04T13:25:14.785Z,7.25
2023-01-04T13:28:05.373Z,4.97
2023-01-04T13:30:39.640Z,4.30
2023-01-04T13:33:27.281Z,6.20
2023-01-04T13:36:12.212Z,5.80
2023-01-04T13:38:45.584Z,5.10
2023-01-04T13:41:32.108Z,5.13
2023-01-04T13:48:06.375Z,5.25
2023-01-04T13:50:47.443Z,9.27
2023-01-04T13:53:31.100Z,5.03
2023-01-04T13:56:04.717Z,6.03
2023-01-04T13:58:35.523Z,7.32
2023-01-04T14:01:31.784Z,5.25
2023-01-04T14:04:13.450Z,6.07
2023-01-04T14:06:55.220Z,5.50
2023-01-04T14:09:43.426Z,5.60
2023-01-04T14:12:27.270Z,6.30
2023-01-04T14:15:17.270Z,4.35
2023-01-04T14:17:53.932Z,6.15
2023-01-04T14:20:25.175Z,4.22
2023-01-04T14:22:58.949Z,6.72
2023-01-04T14:25:38.451Z,4.40
2023-01-04T14:28:41.631Z,6.20
2023-01-04T14:31:25.310Z,5.30
2023-01-04T14:33:56.737Z,4.50
2023-01-04T14:36:33.051Z,4.22
2023-01-04T14:39:09.666Z,8.18
2023-01-04T14:41:54.939Z,3.55
2023-01-04T14:44:30.991Z,4.90
2023-01-04T14:47:06.297Z,5.40
2023-01-04T14:49:36.569Z,3.80
2023-01-04T14:52:23.835Z,8.23
2023-01-04T14:54:53.904Z,6.45
2023-01-04T14:57:24.101Z,3.45
2023-01-04T14:59:54.094Z,4.78
2023-01-04T15:02:26.957Z,3.15
2023-01-04T15:04:57.329Z,3.42
2023-01-04T15:07:40.558Z,4.43
2023-01-04T15:10:28.690Z,4.20
2023-01-04T15:13:00.823Z,5.07
2023-01-04T15:15:35.629Z,3.58
2023-01-04T15:18:05.977Z,3.90
2023-01-04T15:20:40.989Z,3.83
2023-01-04T15:23:11.429Z,2.58
2023-01-04T15:25:42.162Z,4.20
2023-01-04T15:28:10.072Z,2.75
2023-01-04T15:30:43.752Z,5.80
2023-01-04T15:33:13.977Z,3.92
2023-01-04T15:35:44.061Z,4.50
2023-01-04T15:38:18.396Z,2.63
2023-01-04T15:40:50.232Z,3.15
2023-01-04T15:43:20.412Z,3.83
2023-01-04T15:45:50.435Z,5.55
2023-01-04T15:48:20.676Z,4.45
2023-01-04T15:50:50.792Z,3.85
2023-01-04T15:53:20.928Z,4.40
2023-01-04T15:55:52.491Z,3.35
2023-01-04T15:58:22.576Z,4.43
2023-01-04T16:00:59.653Z,4.22
2023-01-04T16:03:36.350Z,5.03
2023-01-04T16:06:16.647Z,3.60
2023-01-04T16:08:47.223Z,3.08
2023-01-04T16:11:23.605Z,3.72
2023-01-04T16:13:54.271Z,2.45
2023-01-04T16:16:29.719Z,3.85
2023-01-04T16:18:59.839Z,4.17
2023-01-04T16:21:29.562Z,2.20
2023-01-04T16:24:09.180Z,2.85
2023-01-04T16:26:43.177Z,2.17
2023-01-04T16:29:13.337Z,3.63
2023-01-04T16:31:45.445Z,1.73
2023-01-04T16:34:15.874Z,3.13
2023-01-04T16:36:45.932Z,2.35
2023-01-04T16:39:17.022Z,3.38
2023-01-04T16:41:47.283Z,3.17
2023-01-04T16:44:17.350Z,3.13
2023-01-04T16:46:47.474Z,2.75
2023-01-04T16:49:18.470Z,2.35
2023-01-04T16:51:49.169Z,4.07
2023-01-04T16:54:19.625Z,2.55
2023-01-04T16:56:50.209Z,1.63
2023-01-04T16:59:21.379Z,1.70
2023-01-04T17:01:57.352Z,2.17
2023-01-04T17:04:28.220Z,1.60
2023-01-04T17:06:58.510Z,2.92
2023-01-04T17:09:28.505Z,1.38
2023-01-04T17:15:14.990Z,2.15
2023-01-04T17:17:39.752Z,1.38
2023-01-04T17:20:08.957Z,1.80
2023-01-04T17:22:36.683Z,1.65
2023-01-04T17:25:05.804Z,1.30
2023-01-04T17:27:35.547Z,2.95
2023-01-04T17:30:06.691Z,1.63
2023-01-04T17:32:36.881Z,1.65
2023-01-04T17:35:07.344Z,2.40
2023-01-04T17:37:37.452Z,3.67
2023-01-04T17:40:08.219Z,2.40
2023-01-04T17:42:38.213Z,2.60
2023-01-04T17:45:08.914Z,1.58
2023-01-04T17:47:38.998Z,2.70
2023-01-04T17:50:09.536Z,1.60
2023-01-04T17:52:39.594Z,2.22
2023-01-04T17:55:10.439Z,2.22
2023-01-04T18:00:15.361Z,3.25
2023-01-04T18:02:45.480Z,3.38
2023-01-04T18:05:13.892Z,4.18
2023-01-04T18:07:42.409Z,1.55
2023-01-04T18:10:20.589Z,1.40
2023-01-04T18:12:51.281Z,2.90
2023-01-04T18:15:21.227Z,2.28
2023-01-04T18:17:51.041Z,2.83
2023-01-04T18:20:24.891Z,0.95
2023-01-04T18:22:55.421Z,4.32
2023-01-04T18:25:25.496Z,1.52
2023-01-04T18:27:53.840Z,3.78
2023-01-04T18:30:22.064Z,1.70
2023-01-04T18:32:50.661Z,2.33
2023-01-04T18:35:18.872Z,3.17
2023-01-04T18:37:47.417Z,1.52
2023-01-04T18:40:15.858Z,1.75
2023-01-04T18:42:51.423Z,2.35
2023-01-04T18:45:21.490Z,1.35
2023-01-04T18:47:52.250Z,1.23
2023-01-04T18:50:22.401Z,1.13
2023-01-04T18:52:52.029Z,1.85
2023-01-04T18:55:21.957Z,1.85
2023-01-04T18:57:51.743Z,2.22
2023-01-04T19:00:23.035Z,1.23
2023-01-04T19:02:53.132Z,2.28
2023-01-04T19:05:24.514Z,1.42
2023-01-04T19:07:55.440Z,2.03
2023-01-04T19:10:25.547Z,1.38
2023-01-04T19:12:55.311Z,0.98
2023-01-04T19:15:25.822Z,2.92
2023-01-04T19:17:57.172Z,3.17
2023-01-04T19:20:27.379Z,2.83
2023-01-04T19:22:57.187Z,2.85
2023-01-04T19:25:28.618Z,2.58
2023-01-04T19:27:58.798Z,1.65
2023-01-04T19:30:29.116Z,2.20
2023-01-04T19:32:59.199Z,1.38
2023-01-04T19:35:29.015Z,2.15
2023-01-04T19:37:59.345Z,1.48
2023-01-04T19:40:29.462Z,1.25
2023-01-04T19:42:59.281Z,3.67
2023-01-04T19:45:29.051Z,1.70
2023-01-04T19:48:00.528Z,4.03
2023-01-04T19:50:30.284Z,1.77
2023-01-04T19:52:58.680Z,1.30
2023-01-04T19:55:29.741Z,1.52
2023-01-04T19:58:00.279Z,1.42
2023-01-04T20:00:30.343Z,1.33
2023-01-04T20:03:00.739Z,1.58
2023-01-04T20:05:30.920Z,2.42
2023-01-04T20:08:01.010Z,1.80
2023-01-04T20:10:31.019Z,1.42
2023-01-04T20:13:01.111Z,2.85
2023-01-04T20:15:31.187Z,2.38
2023-01-04T20:18:01.280Z,1.13
2023-01-04T20:20:31.384Z,2.78
2023-01-04T20:23:01.467Z,3.00
2023-01-04T20:25:31.644Z,1.83
2023-01-04T20:27:59.969Z,0.85
2023-01-04T20:30:28.362Z,1.35
2023-01-04T20:32:56.749Z,1.23
2023-01-04T20:35:25.292Z,1.23
2023-01-04T20:37:59.607Z,1.92
2023-01-04T20:40:29.655Z,1.52
2023-01-04T20:43:18.500Z,1.20
2023-01-04T20:45:49.645Z,1.92
2023-01-04T20:48:19.829Z,3.17
2023-01-04T20:50:49.823Z,1.92
2023-01-04T20:53:20.304Z,1.90
2023-01-04T20:55:48.411Z,1.50
2023-01-04T20:58:17.643Z,3.78
2023-01-04T21:00:47.731Z,2.83
2023-01-04T21:03:16.934Z,2.20
2023-01-04T21:05:45.547Z,3.20
2023-01-04T21:08:13.888Z,1.33
2023-01-04T21:10:44.073Z,2.00
2023-01-04T21:13:14.122Z,3.25
2023-01-04T21:15:44.433Z,2.85
2023-01-04T21:18:14.664Z,1.25
2023-01-04T21:20:45.708Z,1.75
2023-01-04T21:23:22.627Z,4.03
2023-01-04T21:25:53.298Z,2.72
2023-01-04T21:28:23.379Z,1.70
2023-01-04T21:30:53.434Z,2.35
2023-01-04T21:33:24.989Z,2.00
2023-01-04T21:35:55.049Z,3.95
2023-01-04T21:38:25.097Z,2.50
2023-01-04T21:40:53.587Z,1.38
2023-01-04T21:43:21.918Z,1.77
2023-01-04T21:45:50.362Z,2.83
2023-01-04T21:48:18.794Z,4.15
2023-01-04T21:50:47.194Z,1.92
2023-01-04T21:53:15.589Z,3.40
2023-01-04T21:55:44.024Z,3.33
2023-01-04T21:58:12.557Z,1.42
2023-01-04T22:00:40.871Z,2.83
2023-01-04T22:03:11.002Z,5.90
2023-01-04T22:05:40.680Z,3.08
2023-01-04T22:08:09.253Z,2.67
2023-01-04T22:10:37.631Z,2.05
2023-01-04T22:13:06.329Z,4.53
2023-01-04T22:15:41.446Z,3.15
2023-01-04T22:18:11.522Z,4.60
2023-01-04T22:20:41.560Z,3.95
2023-01-04T22:23:12.651Z,4.97
2023-01-04T22:25:42.743Z,1.75
2023-01-04T22:28:14.569Z,6.88
2023-01-04T22:30:44.575Z,5.63
2023-01-04T22:33:14.550Z,5.93
2023-01-04T22:35:44.595Z,6.60
2023-01-04T22:38:14.930Z,6.70
2023-01-04T22:40:45.096Z,6.28
2023-01-04T22:43:15.157Z,8.35
2023-01-04T22:45:46.107Z,4.63
2023-01-04T22:48:16.144Z,6.60
2023-01-04T22:50:46.150Z,7.80
2023-01-04T22:53:16.213Z,8.43
2023-01-04T22:56:17.631Z,7.07
2023-01-04T22:58:37.943Z,4.55
2023-01-04T23:01:09.486Z,7.75
2023-01-04T23:03:43.414Z,5.78
2023-01-04T23:06:14.251Z,7.18
2023-01-04T23:08:44.970Z,4.63
2023-01-04T23:11:18.944Z,2.90
2023-01-04T23:13:49.649Z,5.72
2023-01-04T23:16:24.780Z,6.18
2023-01-04T23:18:58.088Z,5.65
2023-01-04T23:21:29.358Z,8.95
2023-01-04T23:24:00.415Z,10.18
2023-01-04T23:26:32.864Z,4.22
2023-01-04T23:29:03.735Z,10.75
2023-01-04T23:31:34.818Z,6.80
2023-01-04T23:34:06.505Z,9.48
2023-01-04T23:36:39.971Z,3.85
2023-01-04T23:39:17.109Z,4.78
2023-01-04T23:41:45.560Z,10.40
2023-01-04T23:44:26.093Z,8.85
2023-01-04T23:47:06.606Z,7.85
2023-01-04T23:49:39.328Z,7.53
2023-01-04T23:52:09.415Z,6.68
2023-01-04T23:54:40.663Z,8.98
2023-01-04T23:57:10.698Z,7.30
2023-01-04T23:59:40.751Z,6.95
